sensor_id;sensor_type;location;lat;lon;timestamp;P1;durP1;ratioP1;P2;durP2;ratioP2
19030;SDS011;9648;51.130;13.978;2023-04-01T00:01:26;4.05;;;1.08;;
19030;SDS011;9648;51.130;13.978;2023-04-01T00:03:53;4.40;;;1.00;;
19030;SDS011;9648;51.130;13.978;2023-04-01T00:06:21;3.97;;;1.10;;
19030;SDS011;9648;51.130;13.978;2023-04-01T00:08:49;3.78;;;1.10;;
19030;SDS011;9648;51.130;13.978;2023-04-01T00:11:17;4.32;;;1.00;;
19030;SDS011;9648;51.130;13.978;2023-04-01T00:13:44;7.40;;;1.58;;
19030;SDS011;9648;51.130;13.978;2023-04-01T00:16:11;7.80;;;1.70;;
19030;SDS011;9648;51.130;13.978;2023-04-01T00:18:38;2.88;;;1.30;;
19030;SDS011;9648;51.130;13.978;2023-04-01T00:21:05;4.65;;;1.65;;
19030;SDS011;9648;51.130;13.978;2023-04-01T00:23:32;5.00;;;1.52;;
19030;SDS011;9648;51.130;13.978;2023-04-01T00:26:01;5.23;;;1.37;;
19030;SDS011;9648;51.130;13.978;2023-04-01T00:28:29;4.30;;;1.93;;
19030;SDS011;9648;51.130;13.978;2023-04-01T00:30:56;4.60;;;1.30;;
19030;SDS011;9648;51.130;13.978;2023-04-01T00:33:22;5.13;;;1.33;;
19030;SDS011;9648;51.130;13.978;2023-04-01T00:35:49;4.53;;;1.30;;
19030;SDS011;9648;51.130;13.978;2023-04-01T00:38:16;4.68;;;1.33;;
19030;SDS011;9648;51.130;13.978;2023-04-01T00:40:44;3.83;;;1.10;;
19030;SDS011;9648;51.130;13.978;2023-04-01T00:43:14;4.88;;;1.23;;
19030;SDS011;9648;51.130;13.978;2023-04-01T00:45:43;3.03;;;1.10;;
19030;SDS011;9648;51.130;13.978;2023-04-01T00:48:15;3.22;;;1.13;;
19030;SDS011;9648;51.130;13.978;2023-04-01T00:50:46;5.47;;;1.27;;
19030;SDS011;9648;51.130;13.978;2023-04-01T00:53:16;3.85;;;1.23;;
19030;SDS011;9648;51.130;13.978;2023-04-01T00:55:46;4.35;;;1.20;;
19030;SDS011;9648;51.130;13.978;2023-04-01T00:58:18;4.70;;;1.30;;
19030;SDS011;9648;51.130;13.978;2023-04-01T01:00:49;8.80;;;1.40;;
19030;SDS011;9648;51.130;13.978;2023-04-01T01:03:18;3.53;;;1.30;;
19030;SDS011;9648;51.130;13.978;2023-04-01T01:05:52;3.93;;;1.10;;
19030;SDS011;9648;51.130;13.978;2023-04-01T01:08:29;4.33;;;1.23;;
19030;SDS011;9648;51.130;13.978;2023-04-01T01:11:06;3.70;;;1.08;;
19030;SDS011;9648;51.130;13.978;2023-04-01T01:13:39;3.42;;;1.23;;
19030;SDS011;9648;51.130;13.978;2023-04-01T01:16:13;3.75;;;1.20;;
19030;SDS011;9648;51.130;13.978;2023-04-01T01:18:47;5.05;;;1.45;;
19030;SDS011;9648;51.130;13.978;2023-04-01T01:24:31;4.85;;;1.10;;
19030;SDS011;9648;51.130;13.978;2023-04-01T01:27:08;5.03;;;1.20;;
19030;SDS011;9648;51.130;13.978;2023-04-01T01:29:54;6.83;;;1.23;;
19030;SDS011;9648;51.130;13.978;2023-04-01T01:32:35;3.45;;;1.05;;
19030;SDS011;9648;51.130;13.978;2023-04-01T01:35:23;4.70;;;1.13;;
19030;SDS011;9648;51.130;13.978;2023-04-01T01:37:55;5.93;;;1.10;;
19030;SDS011;9648;51.130;13.978;2023-04-01T01:40:27;5.25;;;1.20;;
19030;SDS011;9648;51.130;13.978;2023-04-01T01:42:57;4.10;;;1.20;;
19030;SDS011;9648;51.130;13.978;2023-04-01T01:45:26;4.40;;;1.15;;
19030;SDS011;9648;51.130;13.978;2023-04-01T01:47:55;3.58;;;1.25;;
19030;SDS011;9648;51.130;13.978;2023-04-01T01:50:24;4.85;;;1.20;;
19030;SDS011;9648;51.130;13.978;2023-04-01T01:52:59;4.55;;;1.20;;
19030;SDS011;9648;51.130;13.978;2023-04-01T01:55:29;5.32;;;1.40;;
19030;SDS011;9648;51.130;13.978;2023-04-01T01:57:58;5.35;;;1.15;;
19030;SDS011;9648;51.130;13.978;2023-04-01T02:00:28;3.75;;;1.10;;
19030;SDS011;9648;51.130;13.978;2023-04-01T02:02:55;3.88;;;1.20;;
19030;SDS011;9648;51.130;13.978;2023-04-01T02:05:26;2.97;;;1.20;;
19030;SDS011;9648;51.130;13.978;2023-04-01T02:07:57;3.28;;;0.98;;
19030;SDS011;9648;51.130;13.978;2023-04-01T02:10:28;4.80;;;1.10;;
19030;SDS011;9648;51.130;13.978;2023-04-01T02:13:01;3.70;;;1.13;;
19030;SDS011;9648;51.130;13.978;2023-04-01T02:15:35;4.53;;;1.20;;
19030;SDS011;9648;51.130;13.978;2023-04-01T02:18:06;3.63;;;1.00;;
19030;SDS011;9648;51.130;13.978;2023-04-01T02:20:35;4.47;;;1.30;;
19030;SDS011;9648;51.130;13.978;2023-04-01T02:23:04;3.88;;;1.10;;
19030;SDS011;9648;51.130;13.978;2023-04-01T02:25:33;4.47;;;1.30;;
19030;SDS011;9648;51.130;13.978;2023-04-01T02:28:01;5.50;;;1.20;;
19030;SDS011;9648;51.130;13.978;2023-04-01T02:30:32;4.82;;;1.30;;
19030;SDS011;9648;51.130;13.978;2023-04-01T02:33:00;4.47;;;1.20;;
19030;SDS011;9648;51.130;13.978;2023-04-01T02:35:28;4.90;;;1.10;;
19030;SDS011;9648;51.130;13.978;2023-04-01T02:37:57;5.43;;;1.10;;
19030;SDS011;9648;51.130;13.978;2023-04-01T02:40:25;3.67;;;0.98;;
19030;SDS011;9648;51.130;13.978;2023-04-01T02:42:51;6.28;;;1.10;;
19030;SDS011;9648;51.130;13.978;2023-04-01T02:45:18;4.05;;;1.10;;
19030;SDS011;9648;51.130;13.978;2023-04-01T02:47:45;5.65;;;1.20;;
19030;SDS011;9648;51.130;13.978;2023-04-01T02:50:15;4.85;;;1.13;;
19030;SDS011;9648;51.130;13.978;2023-04-01T02:52:42;5.35;;;1.20;;
19030;SDS011;9648;51.130;13.978;2023-04-01T02:55:10;4.05;;;1.30;;
19030;SDS011;9648;51.130;13.978;2023-04-01T02:57:37;5.22;;;1.23;;
19030;SDS011;9648;51.130;13.978;2023-04-01T03:00:04;4.07;;;1.03;;
19030;SDS011;9648;51.130;13.978;2023-04-01T03:02:36;7.50;;;1.63;;
19030;SDS011;9648;51.130;13.978;2023-04-01T03:05:03;5.22;;;1.20;;
19030;SDS011;9648;51.130;13.978;2023-04-01T03:07:32;5.35;;;1.20;;
19030;SDS011;9648;51.130;13.978;2023-04-01T03:09:59;4.95;;;1.40;;
19030;SDS011;9648;51.130;13.978;2023-04-01T03:12:27;3.83;;;1.20;;
19030;SDS011;9648;51.130;13.978;2023-04-01T03:14:53;5.27;;;1.10;;
19030;SDS011;9648;51.130;13.978;2023-04-01T03:17:20;4.15;;;1.13;;
19030;SDS011;9648;51.130;13.978;2023-04-01T03:19:47;5.90;;;1.38;;
19030;SDS011;9648;51.130;13.978;2023-04-01T03:22:14;4.80;;;1.23;;
19030;SDS011;9648;51.130;13.978;2023-04-01T03:24:41;4.72;;;1.13;;
19030;SDS011;9648;51.130;13.978;2023-04-01T03:27:10;4.30;;;1.10;;
19030;SDS011;9648;51.130;13.978;2023-04-01T03:29:39;4.78;;;1.10;;
19030;SDS011;9648;51.130;13.978;2023-04-01T03:32:06;5.95;;;1.30;;
19030;SDS011;9648;51.130;13.978;2023-04-01T03:34:32;4.57;;;1.30;;
19030;SDS011;9648;51.130;13.978;2023-04-01T03:36:59;5.80;;;1.33;;
19030;SDS011;9648;51.130;13.978;2023-04-01T03:39:26;4.07;;;1.10;;
19030;SDS011;9648;51.130;13.978;2023-04-01T03:41:53;6.28;;;1.23;;
19030;SDS011;9648;51.130;13.978;2023-04-01T03:44:19;4.72;;;1.02;;
19030;SDS011;9648;51.130;13.978;2023-04-01T03:46:47;8.80;;;1.50;;
19030;SDS011;9648;51.130;13.978;2023-04-01T03:49:14;4.38;;;1.27;;
19030;SDS011;9648;51.130;13.978;2023-04-01T03:51:42;4.28;;;1.15;;
19030;SDS011;9648;51.130;13.978;2023-04-01T03:54:12;4.53;;;1.00;;
19030;SDS011;9648;51.130;13.978;2023-04-01T03:56:39;4.03;;;1.27;;
19030;SDS011;9648;51.130;13.978;2023-04-01T03:59:06;6.45;;;1.38;;
19030;SDS011;9648;51.130;13.978;2023-04-01T04:01:34;3.88;;;1.02;;
19030;SDS011;9648;51.130;13.978;2023-04-01T04:04:02;5.07;;;1.27;;
19030;SDS011;9648;51.130;13.978;2023-04-01T04:06:30;5.22;;;1.40;;
19030;SDS011;9648;51.130;13.978;2023-04-01T04:08:57;3.85;;;1.15;;
19030;SDS011;9648;51.130;13.978;2023-04-01T04:11:23;5.20;;;1.00;;
19030;SDS011;9648;51.130;13.978;2023-04-01T04:13:50;5.55;;;1.30;;
19030;SDS011;9648;51.130;13.978;2023-04-01T04:16:18;3.15;;;1.10;;
19030;SDS011;9648;51.130;13.978;2023-04-01T04:18:44;8.30;;;2.90;;
19030;SDS011;9648;51.130;13.978;2023-04-01T04:21:13;6.70;;;2.70;;
19030;SDS011;9648;51.130;13.978;2023-04-01T04:23:44;6.43;;;1.80;;
19030;SDS011;9648;51.130;13.978;2023-04-01T04:26:11;5.35;;;1.40;;
19030;SDS011;9648;51.130;13.978;2023-04-01T04:28:39;4.37;;;1.30;;
19030;SDS011;9648;51.130;13.978;2023-04-01T04:31:06;5.53;;;1.38;;
19030;SDS011;9648;51.130;13.978;2023-04-01T04:33:33;4.07;;;1.30;;
19030;SDS011;9648;51.130;13.978;2023-04-01T04:36:01;4.60;;;1.30;;
19030;SDS011;9648;51.130;13.978;2023-04-01T04:38:30;5.82;;;1.30;;
19030;SDS011;9648;51.130;13.978;2023-04-01T04:40:57;8.02;;;1.92;;
19030;SDS011;9648;51.130;13.978;2023-04-01T04:43:23;4.72;;;1.77;;
19030;SDS011;9648;51.130;13.978;2023-04-01T04:45:50;7.47;;;1.50;;
19030;SDS011;9648;51.130;13.978;2023-04-01T04:48:17;3.63;;;1.30;;
19030;SDS011;9648;51.130;13.978;2023-04-01T04:50:45;5.32;;;1.20;;
19030;SDS011;9648;51.130;13.978;2023-04-01T04:53:14;6.80;;;1.40;;
19030;SDS011;9648;51.130;13.978;2023-04-01T04:55:46;5.38;;;1.70;;
19030;SDS011;9648;51.130;13.978;2023-04-01T04:58:16;5.95;;;1.77;;
19030;SDS011;9648;51.130;13.978;2023-04-01T05:00:44;5.13;;;1.60;;
19030;SDS011;9648;51.130;13.978;2023-04-01T05:03:11;6.13;;;1.92;;
19030;SDS011;9648;51.130;13.978;2023-04-01T05:05:39;5.82;;;1.80;;
19030;SDS011;9648;51.130;13.978;2023-04-01T05:08:09;6.60;;;1.40;;
19030;SDS011;9648;51.130;13.978;2023-04-01T05:10:35;5.95;;;1.42;;
19030;SDS011;9648;51.130;13.978;2023-04-01T05:13:04;3.70;;;1.50;;
19030;SDS011;9648;51.130;13.978;2023-04-01T05:15:30;4.93;;;1.20;;
19030;SDS011;9648;51.130;13.978;2023-04-01T05:17:57;6.07;;;1.20;;
19030;SDS011;9648;51.130;13.978;2023-04-01T05:20:24;3.90;;;1.10;;
19030;SDS011;9648;51.130;13.978;2023-04-01T05:22:55;3.90;;;1.27;;
19030;SDS011;9648;51.130;13.978;2023-04-01T05:25:21;3.58;;;1.00;;
19030;SDS011;9648;51.130;13.978;2023-04-01T05:27:48;4.53;;;1.37;;
19030;SDS011;9648;51.130;13.978;2023-04-01T05:30:17;4.18;;;1.10;;
19030;SDS011;9648;51.130;13.978;2023-04-01T05:32:44;5.13;;;1.55;;
19030;SDS011;9648;51.130;13.978;2023-04-01T05:35:11;6.13;;;2.30;;
19030;SDS011;9648;51.130;13.978;2023-04-01T05:37:38;8.55;;;2.40;;
19030;SDS011;9648;51.130;13.978;2023-04-01T05:40:05;3.58;;;1.60;;
19030;SDS011;9648;51.130;13.978;2023-04-01T05:42:33;4.72;;;1.85;;
19030;SDS011;9648;51.130;13.978;2023-04-01T05:45:04;7.03;;;2.28;;
19030;SDS011;9648;51.130;13.978;2023-04-01T05:47:35;8.45;;;3.17;;
19030;SDS011;9648;51.130;13.978;2023-04-01T05:50:02;15.82;;;4.70;;
19030;SDS011;9648;51.130;13.978;2023-04-01T05:52:29;9.83;;;3.60;;
19030;SDS011;9648;51.130;13.978;2023-04-01T05:54:56;12.63;;;3.38;;
19030;SDS011;9648;51.130;13.978;2023-04-01T05:57:23;12.98;;;5.53;;
19030;SDS011;9648;51.130;13.978;2023-04-01T05:59:53;14.65;;;6.57;;
19030;SDS011;9648;51.130;13.978;2023-04-01T06:02:20;8.82;;;4.10;;
19030;SDS011;9648;51.130;13.978;2023-04-01T06:04:48;8.65;;;3.80;;
19030;SDS011;9648;51.130;13.978;2023-04-01T06:07:16;8.95;;;3.40;;
19030;SDS011;9648;51.130;13.978;2023-04-01T06:09:44;13.93;;;5.57;;
19030;SDS011;9648;51.130;13.978;2023-04-01T06:12:17;12.43;;;4.20;;
19030;SDS011;9648;51.130;13.978;2023-04-01T06:15:07;9.65;;;4.07;;
19030;SDS011;9648;51.130;13.978;2023-04-01T06:17:50;18.95;;;5.55;;
19030;SDS011;9648;51.130;13.978;2023-04-01T06:20:30;15.95;;;4.82;;
19030;SDS011;9648;51.130;13.978;2023-04-01T06:23:12;12.70;;;4.47;;
19030;SDS011;9648;51.130;13.978;2023-04-01T06:26:00;8.48;;;3.25;;
19030;SDS011;9648;51.130;13.978;2023-04-01T06:28:49;9.40;;;3.55;;
19030;SDS011;9648;51.130;13.978;2023-04-01T06:31:42;9.15;;;3.47;;
19030;SDS011;9648;51.130;13.978;2023-04-01T06:34:23;6.40;;;2.93;;
19030;SDS011;9648;51.130;13.978;2023-04-01T06:37:18;5.93;;;2.03;;
19030;SDS011;9648;51.130;13.978;2023-04-01T06:39:58;5.22;;;2.15;;
19030;SDS011;9648;51.130;13.978;2023-04-01T06:42:45;5.15;;;2.17;;
19030;SDS011;9648;51.130;13.978;2023-04-01T06:45:27;6.65;;;2.10;;
19030;SDS011;9648;51.130;13.978;2023-04-01T06:48:02;5.95;;;1.52;;
19030;SDS011;9648;51.130;13.978;2023-04-01T06:50:42;4.97;;;1.27;;
19030;SDS011;9648;51.130;13.978;2023-04-01T06:53:17;4.77;;;1.60;;
19030;SDS011;9648;51.130;13.978;2023-04-01T06:55:51;3.47;;;1.30;;
19030;SDS011;9648;51.130;13.978;2023-04-01T06:58:22;3.20;;;1.50;;
19030;SDS011;9648;51.130;13.978;2023-04-01T07:00:51;5.75;;;1.50;;
19030;SDS011;9648;51.130;13.978;2023-04-01T07:03:21;5.87;;;1.30;;
19030;SDS011;9648;51.130;13.978;2023-04-01T07:05:58;3.95;;;1.30;;
19030;SDS011;9648;51.130;13.978;2023-04-01T07:08:31;4.20;;;1.30;;
19030;SDS011;9648;51.130;13.978;2023-04-01T07:11:02;4.50;;;1.30;;
19030;SDS011;9648;51.130;13.978;2023-04-01T07:13:31;3.97;;;1.20;;
19030;SDS011;9648;51.130;13.978;2023-04-01T07:16:09;6.53;;;1.67;;
19030;SDS011;9648;51.130;13.978;2023-04-01T07:18:41;4.97;;;1.10;;
19030;SDS011;9648;51.130;13.978;2023-04-01T07:21:15;5.28;;;1.20;;
19030;SDS011;9648;51.130;13.978;2023-04-01T07:23:52;5.25;;;1.40;;
19030;SDS011;9648;51.130;13.978;2023-04-01T07:26:23;3.25;;;1.08;;
19030;SDS011;9648;51.130;13.978;2023-04-01T07:28:52;3.40;;;1.00;;
19030;SDS011;9648;51.130;13.978;2023-04-01T07:31:23;4.18;;;1.20;;
19030;SDS011;9648;51.130;13.978;2023-04-01T07:33:58;3.78;;;1.02;;
19030;SDS011;9648;51.130;13.978;2023-04-01T07:36:33;5.70;;;2.10;;
19030;SDS011;9648;51.130;13.978;2023-04-01T07:39:09;3.80;;;1.40;;
19030;SDS011;9648;51.130;13.978;2023-04-01T07:41:51;3.53;;;1.25;;
19030;SDS011;9648;51.130;13.978;2023-04-01T07:44:27;5.95;;;1.17;;
19030;SDS011;9648;51.130;13.978;2023-04-01T07:47:07;5.03;;;1.27;;
19030;SDS011;9648;51.130;13.978;2023-04-01T07:50:02;2.40;;;1.10;;
19030;SDS011;9648;51.130;13.978;2023-04-01T07:52:39;5.40;;;1.50;;
19030;SDS011;9648;51.130;13.978;2023-04-01T07:55:31;3.67;;;1.15;;
19030;SDS011;9648;51.130;13.978;2023-04-01T07:58:04;3.80;;;1.00;;
19030;SDS011;9648;51.130;13.978;2023-04-01T08:00:39;4.30;;;1.33;;
19030;SDS011;9648;51.130;13.978;2023-04-01T08:03:16;4.72;;;1.20;;
19030;SDS011;9648;51.130;13.978;2023-04-01T08:05:55;3.30;;;1.20;;
19030;SDS011;9648;51.130;13.978;2023-04-01T08:08:27;4.20;;;1.30;;
19030;SDS011;9648;51.130;13.978;2023-04-01T08:11:08;4.50;;;1.10;;
19030;SDS011;9648;51.130;13.978;2023-04-01T08:13:43;4.05;;;1.05;;
19030;SDS011;9648;51.130;13.978;2023-04-01T08:16:20;4.57;;;1.00;;
19030;SDS011;9648;51.130;13.978;2023-04-01T08:18:54;3.03;;;1.00;;
19030;SDS011;9648;51.130;13.978;2023-04-01T08:21:31;3.77;;;1.33;;
19030;SDS011;9648;51.130;13.978;2023-04-01T08:24:05;7.63;;;2.03;;
19030;SDS011;9648;51.130;13.978;2023-04-01T08:26:42;4.03;;;1.55;;
19030;SDS011;9648;51.130;13.978;2023-04-01T08:29:15;4.88;;;1.80;;
19030;SDS011;9648;51.130;13.978;2023-04-01T08:31:48;4.95;;;1.35;;
19030;SDS011;9648;51.130;13.978;2023-04-01T08:34:19;4.50;;;2.00;;
19030;SDS011;9648;51.130;13.978;2023-04-01T08:36:49;3.50;;;1.13;;
19030;SDS011;9648;51.130;13.978;2023-04-01T08:39:21;4.75;;;1.50;;
19030;SDS011;9648;51.130;13.978;2023-04-01T08:45:07;12.05;;;5.82;;
19030;SDS011;9648;51.130;13.978;2023-04-01T08:47:49;2.58;;;1.00;;
19030;SDS011;9648;51.130;13.978;2023-04-01T08:50:36;2.78;;;0.82;;
19030;SDS011;9648;51.130;13.978;2023-04-01T08:53:24;5.57;;;1.10;;
19030;SDS011;9648;51.130;13.978;2023-04-01T08:56:05;3.38;;;0.95;;
19030;SDS011;9648;51.130;13.978;2023-04-01T09:01:43;2.00;;;0.93;;
19030;SDS011;9648;51.130;13.978;2023-04-01T09:04:24;3.72;;;1.00;;
19030;SDS011;9648;51.130;13.978;2023-04-01T09:07:04;2.83;;;0.77;;
19030;SDS011;9648;51.130;13.978;2023-04-01T09:09:54;2.25;;;0.80;;
19030;SDS011;9648;51.130;13.978;2023-04-01T09:12:42;2.73;;;0.70;;
19030;SDS011;9648;51.130;13.978;2023-04-01T09:15:47;2.90;;;0.80;;
19030;SDS011;9648;51.130;13.978;2023-04-01T09:18:43;1.95;;;0.70;;
19030;SDS011;9648;51.130;13.978;2023-04-01T09:21:41;2.42;;;0.77;;
19030;SDS011;9648;51.130;13.978;2023-04-01T09:24:26;2.00;;;0.68;;
19030;SDS011;9648;51.130;13.978;2023-04-01T09:27:05;2.65;;;0.80;;
19030;SDS011;9648;51.130;13.978;2023-04-01T09:29:51;3.25;;;0.85;;
19030;SDS011;9648;51.130;13.978;2023-04-01T09:32:55;3.10;;;0.70;;
19030;SDS011;9648;51.130;13.978;2023-04-01T09:35:47;2.50;;;1.10;;
19030;SDS011;9648;51.130;13.978;2023-04-01T09:38:22;2.20;;;0.75;;
19030;SDS011;9648;51.130;13.978;2023-04-01T09:40:54;2.28;;;0.73;;
19030;SDS011;9648;51.130;13.978;2023-04-01T09:43:24;1.88;;;0.80;;
19030;SDS011;9648;51.130;13.978;2023-04-01T09:45:57;4.65;;;0.90;;
19030;SDS011;9648;51.130;13.978;2023-04-01T09:48:38;3.38;;;0.80;;
19030;SDS011;9648;51.130;13.978;2023-04-01T09:51:17;2.63;;;0.85;;
19030;SDS011;9648;51.130;13.978;2023-04-01T09:53:56;2.70;;;0.80;;
19030;SDS011;9648;51.130;13.978;2023-04-01T09:56:39;2.92;;;1.50;;
19030;SDS011;9648;51.130;13.978;2023-04-01T09:59:43;3.58;;;1.60;;
19030;SDS011;9648;51.130;13.978;2023-04-01T10:02:25;3.05;;;1.20;;
19030;SDS011;9648;51.130;13.978;2023-04-01T10:05:22;6.18;;;1.38;;
19030;SDS011;9648;51.130;13.978;2023-04-01T10:08:18;3.35;;;1.30;;
19030;SDS011;9648;51.130;13.978;2023-04-01T10:11:28;3.50;;;1.05;;
19030;SDS011;9648;51.130;13.978;2023-04-01T10:14:17;3.33;;;1.30;;
19030;SDS011;9648;51.130;13.978;2023-04-01T10:20:11;2.35;;;0.80;;
19030;SDS011;9648;51.130;13.978;2023-04-01T10:28:54;2.75;;;1.20;;
19030;SDS011;9648;51.130;13.978;2023-04-01T10:31:51;3.45;;;1.40;;
19030;SDS011;9648;51.130;13.978;2023-04-01T10:34:53;4.85;;;1.30;;
19030;SDS011;9648;51.130;13.978;2023-04-01T10:37:41;3.60;;;1.38;;
19030;SDS011;9648;51.130;13.978;2023-04-01T10:46:33;4.17;;;1.20;;
19030;SDS011;9648;51.130;13.978;2023-04-01T10:52:12;2.20;;;0.70;;
19030;SDS011;9648;51.130;13.978;2023-04-01T10:55:19;3.03;;;0.90;;
19030;SDS011;9648;51.130;13.978;2023-04-01T11:01:07;2.25;;;0.80;;
19030;SDS011;9648;51.130;13.978;2023-04-01T11:07:08;2.67;;;0.90;;
19030;SDS011;9648;51.130;13.978;2023-04-01T11:10:17;2.00;;;1.30;;
19030;SDS011;9648;51.130;13.978;2023-04-01T11:16:07;3.65;;;0.90;;
19030;SDS011;9648;51.130;13.978;2023-04-01T11:19:03;4.07;;;0.90;;
19030;SDS011;9648;51.130;13.978;2023-04-01T11:22:10;5.57;;;1.92;;
19030;SDS011;9648;51.130;13.978;2023-04-01T11:25:06;5.75;;;1.80;;
19030;SDS011;9648;51.130;13.978;2023-04-01T11:27:56;5.03;;;1.40;;
19030;SDS011;9648;51.130;13.978;2023-04-01T11:30:53;2.73;;;1.10;;
19030;SDS011;9648;51.130;13.978;2023-04-01T11:33:38;2.30;;;1.08;;
19030;SDS011;9648;51.130;13.978;2023-04-01T11:36:11;2.90;;;1.00;;
19030;SDS011;9648;51.130;13.978;2023-04-01T11:38:56;2.45;;;1.10;;
19030;SDS011;9648;51.130;13.978;2023-04-01T11:41:46;1.95;;;0.85;;
19030;SDS011;9648;51.130;13.978;2023-04-01T11:44:20;3.90;;;1.20;;
19030;SDS011;9648;51.130;13.978;2023-04-01T11:49:46;2.83;;;0.82;;
19030;SDS011;9648;51.130;13.978;2023-04-01T11:52:30;1.95;;;0.93;;
19030;SDS011;9648;51.130;13.978;2023-04-01T11:55:18;2.47;;;1.17;;
19030;SDS011;9648;51.130;13.978;2023-04-01T11:57:51;3.58;;;1.20;;
19030;SDS011;9648;51.130;13.978;2023-04-01T12:00:48;2.55;;;1.25;;
19030;SDS011;9648;51.130;13.978;2023-04-01T12:03:46;2.75;;;0.90;;
19030;SDS011;9648;51.130;13.978;2023-04-01T12:06:25;2.78;;;0.82;;
19030;SDS011;9648;51.130;13.978;2023-04-01T12:09:00;2.23;;;0.90;;
19030;SDS011;9648;51.130;13.978;2023-04-01T12:11:38;1.67;;;0.80;;
19030;SDS011;9648;51.130;13.978;2023-04-01T12:14:13;4.90;;;1.08;;
19030;SDS011;9648;51.130;13.978;2023-04-01T12:16:48;1.08;;;0.77;;
19030;SDS011;9648;51.130;13.978;2023-04-01T12:19:23;1.27;;;0.60;;
19030;SDS011;9648;51.130;13.978;2023-04-01T12:22:12;1.52;;;0.43;;
19030;SDS011;9648;51.130;13.978;2023-04-01T12:24:55;1.60;;;0.60;;
19030;SDS011;9648;51.130;13.978;2023-04-01T12:27:45;1.10;;;0.50;;
19030;SDS011;9648;51.130;13.978;2023-04-01T12:30:34;2.07;;;0.80;;
19030;SDS011;9648;51.130;13.978;2023-04-01T12:36:01;2.70;;;0.70;;
19030;SDS011;9648;51.130;13.978;2023-04-01T12:38:40;1.48;;;0.73;;
19030;SDS011;9648;51.130;13.978;2023-04-01T12:41:20;2.30;;;1.10;;
19030;SDS011;9648;51.130;13.978;2023-04-01T12:44:02;1.40;;;0.57;;
19030;SDS011;9648;51.130;13.978;2023-04-01T12:46:44;1.38;;;0.55;;
19030;SDS011;9648;51.130;13.978;2023-04-01T12:49:34;2.20;;;0.57;;
19030;SDS011;9648;51.130;13.978;2023-04-01T12:52:23;2.55;;;0.60;;
19030;SDS011;9648;51.130;13.978;2023-04-01T12:55:07;1.00;;;0.40;;
19030;SDS011;9648;51.130;13.978;2023-04-01T13:01:34;1.25;;;0.47;;
19030;SDS011;9648;51.130;13.978;2023-04-01T13:04:28;1.13;;;0.40;;
19030;SDS011;9648;51.130;13.978;2023-04-01T13:07:13;1.58;;;0.30;;
19030;SDS011;9648;51.130;13.978;2023-04-01T13:09:51;2.40;;;0.50;;
19030;SDS011;9648;51.130;13.978;2023-04-01T13:12:28;0.60;;;0.50;;
19030;SDS011;9648;51.130;13.978;2023-04-01T13:18:05;0.82;;;0.50;;
19030;SDS011;9648;51.130;13.978;2023-04-01T13:20:44;0.95;;;0.40;;
19030;SDS011;9648;51.130;13.978;2023-04-01T13:23:24;1.38;;;0.40;;
19030;SDS011;9648;51.130;13.978;2023-04-01T13:26:13;2.25;;;0.57;;
19030;SDS011;9648;51.130;13.978;2023-04-01T13:28:46;1.38;;;0.52;;
19030;SDS011;9648;51.130;13.978;2023-04-01T13:31:25;1.47;;;0.63;;
19030;SDS011;9648;51.130;13.978;2023-04-01T13:34:03;1.90;;;0.60;;
19030;SDS011;9648;51.130;13.978;2023-04-01T13:36:46;1.20;;;0.80;;
19030;SDS011;9648;51.130;13.978;2023-04-01T13:39:26;1.93;;;0.70;;
19030;SDS011;9648;51.130;13.978;2023-04-01T13:42:05;2.40;;;0.90;;
19030;SDS011;9648;51.130;13.978;2023-04-01T13:44:41;1.67;;;0.80;;
19030;SDS011;9648;51.130;13.978;2023-04-01T13:50:19;1.63;;;0.88;;
19030;SDS011;9648;51.130;13.978;2023-04-01T13:52:55;2.15;;;0.93;;
19030;SDS011;9648;51.130;13.978;2023-04-01T13:55:48;2.20;;;1.00;;
19030;SDS011;9648;51.130;13.978;2023-04-01T13:58:43;0.70;;;0.40;;
19030;SDS011;9648;51.130;13.978;2023-04-01T14:01:20;1.10;;;0.50;;
19030;SDS011;9648;51.130;13.978;2023-04-01T14:06:56;0.70;;;0.40;;
19030;SDS011;9648;51.130;13.978;2023-04-01T14:09:35;1.42;;;0.50;;
19030;SDS011;9648;51.130;13.978;2023-04-01T14:12:13;0.65;;;0.50;;
19030;SDS011;9648;51.130;13.978;2023-04-01T14:14:55;2.78;;;0.80;;
19030;SDS011;9648;51.130;13.978;2023-04-01T14:17:38;3.55;;;1.00;;
19030;SDS011;9648;51.130;13.978;2023-04-01T14:20:17;2.38;;;1.15;;
19030;SDS011;9648;51.130;13.978;2023-04-01T14:22:57;1.63;;;1.02;;
19030;SDS011;9648;51.130;13.978;2023-04-01T14:25:50;2.90;;;0.70;;
19030;SDS011;9648;51.130;13.978;2023-04-01T14:28:30;2.78;;;0.60;;
19030;SDS011;9648;51.130;13.978;2023-04-01T14:31:09;0.95;;;0.50;;
19030;SDS011;9648;51.130;13.978;2023-04-01T14:33:50;1.30;;;0.70;;
19030;SDS011;9648;51.130;13.978;2023-04-01T14:36:33;3.03;;;0.70;;
19030;SDS011;9648;51.130;13.978;2023-04-01T14:39:18;2.28;;;1.35;;
19030;SDS011;9648;51.130;13.978;2023-04-01T14:41:58;1.50;;;0.50;;
19030;SDS011;9648;51.130;13.978;2023-04-01T14:44:49;1.60;;;0.80;;
19030;SDS011;9648;51.130;13.978;2023-04-01T14:47:33;2.58;;;0.85;;
19030;SDS011;9648;51.130;13.978;2023-04-01T14:50:11;1.80;;;0.50;;
19030;SDS011;9648;51.130;13.978;2023-04-01T14:52:42;1.30;;;0.60;;
19030;SDS011;9648;51.130;13.978;2023-04-01T14:55:21;1.45;;;0.68;;
19030;SDS011;9648;51.130;13.978;2023-04-01T14:58:04;1.77;;;0.80;;
19030;SDS011;9648;51.130;13.978;2023-04-01T15:00:41;1.55;;;0.90;;
19030;SDS011;9648;51.130;13.978;2023-04-01T15:03:20;1.53;;;0.73;;
19030;SDS011;9648;51.130;13.978;2023-04-01T15:05:52;0.98;;;0.68;;
19030;SDS011;9648;51.130;13.978;2023-04-01T15:08:27;1.20;;;0.60;;
19030;SDS011;9648;51.130;13.978;2023-04-01T15:11:05;0.93;;;0.50;;
19030;SDS011;9648;51.130;13.978;2023-04-01T15:13:48;1.43;;;0.80;;
19030;SDS011;9648;51.130;13.978;2023-04-01T15:16:39;1.65;;;0.50;;
19030;SDS011;9648;51.130;13.978;2023-04-01T15:19:14;2.00;;;0.53;;
19030;SDS011;9648;51.130;13.978;2023-04-01T15:21:54;1.45;;;0.70;;
19030;SDS011;9648;51.130;13.978;2023-04-01T15:24:35;1.50;;;0.70;;
19030;SDS011;9648;51.130;13.978;2023-04-01T15:27:18;4.75;;;0.63;;
19030;SDS011;9648;51.130;13.978;2023-04-01T15:29:56;0.70;;;0.60;;
19030;SDS011;9648;51.130;13.978;2023-04-01T15:32:51;2.10;;;0.80;;
19030;SDS011;9648;51.130;13.978;2023-04-01T15:35:36;1.65;;;0.70;;
19030;SDS011;9648;51.130;13.978;2023-04-01T15:38:11;1.20;;;0.63;;
19030;SDS011;9648;51.130;13.978;2023-04-01T15:40:54;1.20;;;0.75;;
19030;SDS011;9648;51.130;13.978;2023-04-01T15:43:32;1.25;;;0.60;;
19030;SDS011;9648;51.130;13.978;2023-04-01T15:46:14;1.60;;;1.10;;
19030;SDS011;9648;51.130;13.978;2023-04-01T15:51:43;1.13;;;0.70;;
19030;SDS011;9648;51.130;13.978;2023-04-01T15:54:23;1.00;;;0.68;;
19030;SDS011;9648;51.130;13.978;2023-04-01T15:57:06;1.13;;;0.60;;
19030;SDS011;9648;51.130;13.978;2023-04-01T16:02:37;2.35;;;0.70;;
19030;SDS011;9648;51.130;13.978;2023-04-01T16:05:16;1.40;;;0.77;;
19030;SDS011;9648;51.130;13.978;2023-04-01T16:07:56;1.15;;;0.60;;
19030;SDS011;9648;51.130;13.978;2023-04-01T16:10:51;1.38;;;0.77;;
19030;SDS011;9648;51.130;13.978;2023-04-01T16:13:32;1.20;;;0.80;;
19030;SDS011;9648;51.130;13.978;2023-04-01T16:16:12;1.92;;;0.80;;
19030;SDS011;9648;51.130;13.978;2023-04-01T16:18:52;1.88;;;0.90;;
19030;SDS011;9648;51.130;13.978;2023-04-01T16:21:36;2.35;;;1.20;;
19030;SDS011;9648;51.130;13.978;2023-04-01T16:24:12;1.50;;;1.20;;
19030;SDS011;9648;51.130;13.978;2023-04-01T16:26:44;2.23;;;1.30;;
19030;SDS011;9648;51.130;13.978;2023-04-01T16:29:19;1.73;;;1.05;;
19030;SDS011;9648;51.130;13.978;2023-04-01T16:32:00;1.20;;;0.85;;
19030;SDS011;9648;51.130;13.978;2023-04-01T16:34:45;2.65;;;0.88;;
19030;SDS011;9648;51.130;13.978;2023-04-01T16:37:21;1.80;;;0.90;;
19030;SDS011;9648;51.130;13.978;2023-04-01T16:40:01;1.35;;;0.80;;
19030;SDS011;9648;51.130;13.978;2023-04-01T16:42:39;1.88;;;1.00;;
19030;SDS011;9648;51.130;13.978;2023-04-01T16:45:16;1.53;;;1.00;;